Time;durP1;ratioP1;P1;durP2;ratioP2;P2;SDS_P1;SDS_P2;PMS_P1;PMS_P2;Temp;Humidity;BMP_temperature;BMP_pressure;BME280_temperature;BME280_humidity;BME280_pressure;Samples;Min_cycle;Max_cycle;Signal;HPM_P1;HPM_P2
2023/01/17 00:01:04;;;;;;;;;;;3.00;90.40;;;;;;5035515;28;20013;-79
2023/01/17 00:03:29;;;;;;;;;;;3.00;90.40;;;;;;5035417;28;20017;-80
2023/01/17 00:11:39;;;;;;;;;;;3.10;90.50;;;;;;5032166;28;20003;-79
2023/01/17 00:14:05;;;;;;;;;;;3.10;90.50;;;;;;5038124;28;20410;-79
2023/01/17 00:16:30;;;;;;;;;;;3.10;90.50;;;;;;5039872;28;19909;-78
2023/01/17 01:33:39;;;;;;;;;;;2.60;91.50;;;;;;5036361;28;20404;-79
2023/01/17 01:36:06;;;;;;;;;;;2.70;91.50;;;;;;5016314;28;19913;-80
2023/01/17 01:38:31;;;;;;;;;;;2.60;91.20;;;;;;5035153;28;19976;-80
2023/01/17 01:40:57;;;;;;;;;;;2.60;91.20;;;;;;5034187;28;19948;-80
2023/01/17 01:43:39;;;;;;;;;;;2.60;91.20;;;;;;5034929;28;19988;-80
2023/01/17 01:46:05;;;;;;;;;;;2.60;91.20;;;;;;5034055;28;19981;-80
2023/01/17 01:48:31;;;;;;;;;;;2.50;91.20;;;;;;5034735;28;19909;-80
2023/01/17 01:50:57;;;;;;;;;;;2.50;91.20;;;;;;5034570;28;19915;-80
2023/01/17 01:53:23;;;;;;;;;;;2.50;90.90;;;;;;5040779;28;19897;-78
2023/01/17 01:55:49;;;;;;;;;;;2.50;90.70;;;;;;5071536;28;19968;-79
2023/01/17 01:58:20;;;;;;;;;;;2.50;90.80;;;;;;5071849;28;19928;-79
2023/01/17 02:00:46;;;;;;;;;;;2.40;91.00;;;;;;5058948;28;19916;-79
2023/01/17 02:03:14;;;;;;;;;;;2.30;91.00;;;;;;5059752;28;19906;-79
2023/01/17 02:05:42;;;;;;;;;;;2.30;91.10;;;;;;5059591;28;19909;-79
2023/01/17 02:08:10;;;;;;;;;;;2.20;91.10;;;;;;5042033;28;19971;-79
2023/01/17 02:10:37;;;;;;;;;;;2.20;91.10;;;;;;5056353;28;19920;-82
2023/01/17 02:13:03;;;;;;;;;;;2.20;91.10;;;;;;5040001;28;19916;-80
2023/01/17 02:15:31;;;;;;;;;;;2.20;91.20;;;;;;5038112;28;19925;-80
2023/01/17 02:18:17;;;;;;;;;;;2.20;91.20;;;;;;5053738;28;19913;-79
2023/01/17 02:20:48;;;;;;;;;;;2.20;91.30;;;;;;5020606;28;19913;-81
2023/01/17 02:23:29;;;;;;;;;;;2.10;91.30;;;;;;5039870;28;19917;-79
2023/01/17 02:26:13;;;;;;;;;;;2.10;91.50;;;;;;5040424;28;20286;-79
2023/01/17 02:28:38;;;;;;;;;;;2.10;91.50;;;;;;5040700;28;20393;-79
2023/01/17 02:31:27;;;;;;;;;;;2.00;91.70;;;;;;5048563;28;19901;-81
2023/01/17 02:33:59;;;;;;;;;;;2.10;91.80;;;;;;5023103;28;19925;-81
2023/01/17 02:36:27;;;;;;;;;;;2.00;91.90;;;;;;5014462;28;19917;-81
2023/01/17 02:39:14;;;;;;;;;;;2.00;91.90;;;;;;5019329;28;19909;-81
2023/01/17 02:41:41;;;;;;;;;;;2.00;91.90;;;;;;5037700;28;19909;-80
2023/01/17 02:44:07;;;;;;;;;;;2.00;91.90;;;;;;5018956;28;19909;-81
2023/01/17 02:46:41;;;;;;;;;;;1.90;91.90;;;;;;5018870;28;19913;-81
2023/01/17 02:49:07;;;;;;;;;;;1.90;92.00;;;;;;5037468;28;19909;-80
2023/01/17 02:51:32;;;;;;;;;;;1.90;92.20;;;;;;5036945;28;20321;-80
2023/01/17 02:54:04;;;;;;;;;;;1.90;92.20;;;;;;5037045;28;19913;-80
2023/01/17 02:56:44;;;;;;;;;;;1.90;92.40;;;;;;5036474;28;19910;-79
2023/01/17 02:59:10;;;;;;;;;;;1.80;92.40;;;;;;4999529;28;19936;-79
2023/01/17 03:01:46;;;;;;;;;;;1.80;92.50;;;;;;5016422;28;19910;-79
2023/01/17 03:04:16;;;;;;;;;;;1.80;92.50;;;;;;5021054;28;19910;-79
2023/01/17 03:06:51;;;;;;;;;;;1.80;92.40;;;;;;5016186;28;19910;-80
2023/01/17 03:09:17;;;;;;;;;;;1.80;92.50;;;;;;5037977;28;19921;-79
2023/01/17 03:11:43;;;;;;;;;;;1.80;92.60;;;;;;5036873;28;19910;-79
2023/01/17 03:14:08;;;;;;;;;;;1.80;92.70;;;;;;5037439;28;19924;-79
2023/01/17 03:16:34;;;;;;;;;;;1.70;92.70;;;;;;5036389;28;19999;-79
2023/01/17 03:19:00;;;;;;;;;;;1.70;92.70;;;;;;5018297;28;19913;-79
2023/01/17 03:21:25;;;;;;;;;;;1.70;92.80;;;;;;5035753;28;19917;-79
2023/01/17 03:23:51;;;;;;;;;;;1.70;92.80;;;;;;5036156;28;19920;-80
2023/01/17 03:26:17;;;;;;;;;;;1.70;92.80;;;;;;5035783;28;19909;-79
2023/01/17 03:28:42;;;;;;;;;;;1.70;92.80;;;;;;5036339;28;19917;-79
2023/01/17 03:31:08;;;;;;;;;;;1.70;92.70;;;;;;5036509;28;20371;-79
2023/01/17 03:33:33;;;;;;;;;;;1.70;92.70;;;;;;5051701;28;19909;-79
2023/01/17 03:35:59;;;;;;;;;;;1.70;92.70;;;;;;5036278;28;20325;-81
2023/01/17 03:38:25;;;;;;;;;;;1.60;92.70;;;;;;5036393;28;20286;-79
2023/01/17 03:40:51;;;;;;;;;;;1.60;92.80;;;;;;5036012;28;19909;-79
2023/01/17 03:43:16;;;;;;;;;;;1.50;92.90;;;;;;5035964;28;19909;-79
2023/01/17 03:45:42;;;;;;;;;;;1.60;93.00;;;;;;5035356;28;19967;-80
2023/01/17 03:48:07;;;;;;;;;;;1.50;93.00;;;;;;5018146;28;19952;-80
2023/01/17 03:50:33;;;;;;;;;;;1.50;93.10;;;;;;5018743;28;19971;-80
2023/01/17 03:52:58;;;;;;;;;;;1.50;93.10;;;;;;5017944;28;19916;-80
2023/01/17 03:55:24;;;;;;;;;;;1.50;93.10;;;;;;5035793;28;19924;-80
2023/01/17 03:57:50;;;;;;;;;;;1.40;93.10;;;;;;5036173;28;20334;-79
2023/01/17 04:00:15;;;;;;;;;;;1.40;93.20;;;;;;5038748;28;20017;-80
2023/01/17 04:02:41;;;;;;;;;;;1.40;93.40;;;;;;5050777;28;19959;-79
2023/01/17 04:05:07;;;;;;;;;;;1.40;93.50;;;;;;5030183;28;19955;-80
2023/01/17 04:07:32;;;;;;;;;;;1.40;93.50;;;;;;5050033;28;20024;-80
2023/01/17 04:09:58;;;;;;;;;;;1.40;93.60;;;;;;5027438;28;20329;-80
2023/01/17 04:12:23;;;;;;;;;;;1.40;93.60;;;;;;5017970;28;20381;-79
2023/01/17 04:14:49;;;;;;;;;;;1.40;93.60;;;;;;5035190;28;19913;-81
2023/01/17 04:17:15;;;;;;;;;;;1.30;93.70;;;;;;5020029;28;20003;-79
2023/01/17 04:19:41;;;;;;;;;;;1.30;93.70;;;;;;5041158;28;19909;-79
2023/01/17 04:22:06;;;;;;;;;;;1.30;93.80;;;;;;5044899;28;19971;-80
2023/01/17 04:24:32;;;;;;;;;;;1.30;93.80;;;;;;5046549;28;19953;-77
2023/01/17 04:26:57;;;;;;;;;;;1.30;93.90;;;;;;5049039;28;19920;-79
2023/01/17 04:29:23;;;;;;;;;;;1.30;93.90;;;;;;5046051;28;19909;-78
2023/01/17 04:31:48;;;;;;;;;;;1.30;93.90;;;;;;5024469;28;19971;-78
2023/01/17 04:34:14;;;;;;;;;;;1.30;93.90;;;;;;5043299;28;19920;-78
2023/01/17 04:36:40;;;;;;;;;;;1.30;93.80;;;;;;5038053;28;19916;-80
2023/01/17 04:39:05;;;;;;;;;;;1.30;93.90;;;;;;5038659;28;20463;-78
2023/01/17 04:41:31;;;;;;;;;;;1.30;93.80;;;;;;5025186;28;19921;-78
2023/01/17 04:43:56;;;;;;;;;;;1.30;93.90;;;;;;5040951;28;19913;-80
2023/01/17 04:46:23;;;;;;;;;;;1.30;94.00;;;;;;5045028;28;19913;-78
2023/01/17 04:48:48;;;;;;;;;;;1.30;94.00;;;;;;5048970;28;19909;-79
2023/01/17 04:51:14;;;;;;;;;;;1.20;94.10;;;;;;5046777;28;19913;-79
2023/01/17 04:53:39;;;;;;;;;;;1.20;94.20;;;;;;5037442;28;19913;-80
2023/01/17 04:56:05;;;;;;;;;;;1.20;94.40;;;;;;5035866;28;19968;-79
2023/01/17 04:58:32;;;;;;;;;;;1.20;94.40;;;;;;5017508;28;19909;-78
2023/01/17 05:01:04;;;;;;;;;;;1.20;94.30;;;;;;5035732;28;19924;-79
2023/01/17 05:03:30;;;;;;;;;;;1.20;94.20;;;;;;5035554;28;19910;-81
2023/01/17 05:05:56;;;;;;;;;;;1.20;94.30;;;;;;5016498;28;20378;-80
2023/01/17 05:08:22;;;;;;;;;;;1.20;94.30;;;;;;5034035;28;19910;-80
2023/01/17 05:10:47;;;;;;;;;;;1.20;94.30;;;;;;5017291;28;19925;-80
2023/01/17 05:13:13;;;;;;;;;;;1.20;94.30;;;;;;5050240;28;19916;-79
2023/01/17 05:15:39;;;;;;;;;;;1.10;94.40;;;;;;5035393;28;19917;-81
2023/01/17 05:18:07;;;;;;;;;;;1.20;94.50;;;;;;5035074;28;19909;-79
2023/01/17 05:20:34;;;;;;;;;;;1.10;94.50;;;;;;5034851;28;19920;-80
2023/01/17 05:22:59;;;;;;;;;;;1.10;94.50;;;;;;5016970;28;19921;-79
2023/01/17 05:25:27;;;;;;;;;;;1.10;94.50;;;;;;5038799;28;20334;-78
2023/01/17 05:27:52;;;;;;;;;;;1.10;94.40;;;;;;5042738;28;19909;-78
2023/01/17 05:30:18;;;;;;;;;;;1.10;94.50;;;;;;5044483;28;19913;-78
2023/01/17 05:32:47;;;;;;;;;;;1.10;94.40;;;;;;5042082;28;19956;-80
2023/01/17 05:35:12;;;;;;;;;;;1.10;94.50;;;;;;5026735;28;20536;-78
2023/01/17 05:37:38;;;;;;;;;;;1.20;94.50;;;;;;5048961;28;19913;-78
2023/01/17 05:40:05;;;;;;;;;;;1.20;94.40;;;;;;5047196;28;20270;-78
2023/01/17 05:42:30;;;;;;;;;;;1.20;94.50;;;;;;5028352;28;19920;-79
2023/01/17 05:44:56;;;;;;;;;;;1.30;94.30;;;;;;5049914;28;20008;-78
2023/01/17 05:47:21;;;;;;;;;;;1.30;94.20;;;;;;5050629;28;19981;-79
2023/01/17 05:49:47;;;;;;;;;;;1.30;94.10;;;;;;5051835;28;19979;-80
2023/01/17 06:07:46;;;;;;;;;;;1.70;93.20;;;;;;4955006;28;19988;-82
2023/01/17 06:10:58;;;;;;;;;;;1.80;93.00;;;;;;4947362;29;19923;-80
2023/01/17 06:29:13;;;;;;;;;;;1.60;93.50;;;;;;4977489;28;19970;-82
2023/01/17 06:46:32;;;;;;;;;;;;;;;;;;;;;
2023/01/17 06:52:24;;;;;;;;;;;1.40;94.10;;;;;;5027439;28;19932;-82
2023/01/17 06:55:33;;;;;;;;;;;;;;;;;;;;;
2023/01/17 06:58:08;;;;;;;;;;;1.30;94.20;;;;;;5033463;28;20015;-83
2023/01/17 07:03:37;;;;;;;;;;;1.40;94.30;;;;;;5039299;23;20152;-83
2023/01/17 07:06:08;;;;;;;;;;;1.40;94.30;;;;;;4984942;28;19961;-81
2023/01/17 07:14:47;;;;;;;;;;;1.40;94.60;;;;;;5091433;23;19940;-81
2023/01/17 07:17:27;;;;;;;;;;;1.40;94.60;;;;;;5051144;28;19960;-82
2023/01/17 07:23:08;;;;;;;;;;;1.40;94.40;;;;;;5055138;28;20396;-80
2023/01/17 07:32:02;;;;;;;;;;;1.50;94.40;;;;;;4998239;28;19924;-81
2023/01/17 07:34:28;;;;;;;;;;;1.40;94.40;;;;;;4981319;28;19930;-82
2023/01/17 07:36:53;;;;;;;;;;;1.50;94.50;;;;;;4996118;28;20000;-82
2023/01/17 07:39:19;;;;;;;;;;;1.50;94.50;;;;;;5024449;28;20020;-81
2023/01/17 07:41:45;;;;;;;;;;;1.50;94.50;;;;;;5084960;28;20378;-80
2023/01/17 07:44:12;;;;;;;;;;;1.50;94.50;;;;;;5049887;28;19916;-82
2023/01/17 07:46:40;;;;;;;;;;;1.50;94.80;;;;;;5061022;28;19913;-82
2023/01/17 07:49:13;;;;;;;;;;;1.70;94.50;;;;;;5074472;28;19928;-82
2023/01/17 07:51:38;;;;;;;;;;;1.70;94.20;;;;;;5042555;28;19919;-81
2023/01/17 07:54:04;;;;;;;;;;;1.70;94.30;;;;;;5057477;28;19976;-80
2023/01/17 07:56:29;;;;;;;;;;;1.70;94.30;;;;;;5059794;28;19908;-80
2023/01/17 07:58:55;;;;;;;;;;;1.80;94.20;;;;;;5077004;28;19937;-80
2023/01/17 08:01:20;;;;;;;;;;;1.80;93.90;;;;;;5077840;28;19901;-81
2023/01/17 08:03:49;;;;;;;;;;;1.80;93.90;;;;;;5059915;28;19979;-79
2023/01/17 08:06:19;;;;;;;;;;;1.80;93.50;;;;;;5059762;28;19912;-81
2023/01/17 08:08:45;;;;;;;;;;;1.80;93.30;;;;;;5068010;28;19917;-82
2023/01/17 08:11:11;;;;;;;;;;;1.80;93.30;;;;;;5041093;28;19925;-82
2023/01/17 08:13:36;;;;;;;;;;;1.90;93.20;;;;;;5040373;28;19996;-81
2023/01/17 08:16:02;;;;;;;;;;;1.90;93.00;;;;;;5042036;28;19913;-82
2023/01/17 08:18:28;;;;;;;;;;;2.00;92.90;;;;;;5067844;28;19935;-82
2023/01/17 08:20:54;;;;;;;;;;;2.10;92.70;;;;;;5069820;28;19992;-81
2023/01/17 08:23:19;;;;;;;;;;;2.20;92.50;;;;;;5073978;28;19909;-81
2023/01/17 08:25:45;;;;;;;;;;;2.20;92.30;;;;;;5075204;28;19916;-81
2023/01/17 08:28:10;;;;;;;;;;;2.30;92.10;;;;;;5077197;28;19901;-80
2023/01/17 08:30:36;;;;;;;;;;;2.40;91.90;;;;;;5077623;28;19909;-81
2023/01/17 08:33:01;;;;;;;;;;;2.40;91.70;;;;;;5075339;28;19923;-79
2023/01/17 08:35:29;;;;;;;;;;;2.50;91.60;;;;;;5073315;28;20120;-82
2023/01/17 08:37:55;;;;;;;;;;;2.60;91.40;;;;;;5057576;28;19924;-80
2023/01/17 08:40:21;;;;;;;;;;;2.80;91.30;;;;;;5068613;28;20019;-80
2023/01/17 08:42:53;;;;;;;;;;;3.00;91.00;;;;;;5066345;28;20012;-80
2023/01/17 08:45:18;;;;;;;;;;;3.10;90.60;;;;;;5040865;28;19959;-81
2023/01/17 08:47:44;;;;;;;;;;;3.30;90.30;;;;;;5060129;28;19913;-80
2023/01/17 08:50:09;;;;;;;;;;;3.40;90.00;;;;;;5058451;28;19913;-80
2023/01/17 08:56:18;;;;;;;;;;;3.50;89.10;;;;;;5037859;28;19921;-81
2023/01/17 08:58:44;;;;;;;;;;;3.50;88.60;;;;;;5038315;28;20263;-81
2023/01/17 09:01:09;;;;;;;;;;;3.60;88.30;;;;;;5020411;28;19921;-79
2023/01/17 09:03:37;;;;;;;;;;;3.70;88.00;;;;;;5018556;28;19973;-80
2023/01/17 09:06:04;;;;;;;;;;;3.80;87.20;;;;;;5014156;28;19917;-80
2023/01/17 09:09:07;;;;;;;;;;;4.00;86.40;;;;;;4986159;28;20013;-81
2023/01/17 09:11:32;;;;;;;;;;;4.10;85.60;;;;;;5011122;28;19981;-81
2023/01/17 09:13:58;;;;;;;;;;;4.40;84.90;;;;;;4993779;28;19941;-81
2023/01/17 09:16:24;;;;;;;;;;;4.50;83.80;;;;;;4994994;28;19913;-81
2023/01/17 09:18:52;;;;;;;;;;;4.60;83.00;;;;;;4997986;28;20290;-80
2023/01/17 09:21:18;;;;;;;;;;;4.70;82.60;;;;;;5002185;28;20353;-80
2023/01/17 09:23:44;;;;;;;;;;;4.70;82.40;;;;;;5021141;28;19914;-81
2023/01/17 09:26:23;;;;;;;;;;;4.60;81.10;;;;;;5004266;28;19914;-81
2023/01/17 09:28:49;;;;;;;;;;;4.60;80.90;;;;;;5016582;28;19909;-79
2023/01/17 09:31:15;;;;;;;;;;;4.60;80.80;;;;;;5017175;28;19940;-79
2023/01/17 09:33:41;;;;;;;;;;;4.70;80.60;;;;;;5032141;28;20370;-80
2023/01/17 09:36:07;;;;;;;;;;;4.80;80.30;;;;;;5027837;28;19925;-80
2023/01/17 09:38:33;;;;;;;;;;;4.90;79.70;;;;;;5033289;28;19921;-81
2023/01/17 09:41:00;;;;;;;;;;;4.80;79.40;;;;;;5027722;28;19913;-80
2023/01/17 09:43:31;;;;;;;;;;;4.80;79.20;;;;;;5013857;28;19925;-80
2023/01/17 09:45:57;;;;;;;;;;;4.70;78.90;;;;;;5009432;28;19925;-80
2023/01/17 09:48:33;;;;;;;;;;;4.70;78.70;;;;;;5009719;28;19941;-80
2023/01/17 09:51:06;;;;;;;;;;;4.70;78.70;;;;;;5006951;28;19914;-81
2023/01/17 09:58:45;;;;;;;;;;;5.40;76.50;;;;;;5166707;23;19926;-80
2023/01/17 10:01:20;;;;;;;;;;;5.60;75.30;;;;;;4984140;28;20363;-81
2023/01/17 10:03:48;;;;;;;;;;;5.60;74.00;;;;;;4997091;28;19940;-79
2023/01/17 10:06:25;;;;;;;;;;;5.60;73.40;;;;;;4991481;28;19965;-81
2023/01/17 10:09:12;;;;;;;;;;;5.50;71.10;;;;;;4994056;28;19922;-80
2023/01/17 10:11:38;;;;;;;;;;;5.30;68.80;;;;;;5024684;28;19945;-80
2023/01/17 10:14:25;;;;;;;;;;;5.20;68.80;;;;;;5025949;28;19918;-79
2023/01/17 10:17:24;;;;;;;;;;;5.10;69.70;;;;;;4995835;28;19918;-80
2023/01/17 10:29:00;;;;;;;;;;;;;;;;;;;;;
2023/01/17 10:31:56;;;;;;;;;;;;;;;;;;;;;
2023/01/17 10:38:00;;;;;;;;;;;6.10;66.50;;;;;;4950317;29;19921;-79
2023/01/17 10:43:38;;;;;;;;;;;6.20;64.60;;;;;;5017556;28;20386;-81
2023/01/17 10:49:27;;;;;;;;;;;6.00;62.40;;;;;;5019780;28;19913;-81
2023/01/17 10:55:20;;;;;;;;;;;5.80;62.90;;;;;;4903136;29;19954;-79
2023/01/17 11:01:25;;;;;;;;;;;5.70;65.40;;;;;;5001243;28;19963;-80
2023/01/17 11:55:37;;;;;;;;;;;;;;;;;;;;;
2023/01/17 12:11:01;;;;;;;;;;;5.30;67.10;;;;;;4959533;28;19914;-80
2023/01/17 12:27:31;;;;;;;;;;;4.90;69.40;;;;;;4985081;28;19965;-80
2023/01/17 12:30:23;;;;;;;;;;;5.10;69.50;;;;;;4976521;28;19904;-80
2023/01/17 12:33:28;;;;;;;;;;;;;;;;;;;;;
2023/01/17 12:36:45;;;;;;;;;;;;;;;;;;;;;
2023/01/17 12:45:33;;;;;;;;;;;5.60;68.00;;;;;;4894431;29;19996;-79
2023/01/17 12:48:09;;;;;;;;;;;5.40;67.50;;;;;;4896988;29;19963;-79
2023/01/17 12:50:39;;;;;;;;;;;5.30;68.00;;;;;;4961123;29;19915;-79
2023/01/17 12:53:24;;;;;;;;;;;5.10;68.60;;;;;;4959723;28;19914;-80
2023/01/17 12:56:10;;;;;;;;;;;5.10;68.30;;;;;;4945462;28;19925;-81
2023/01/17 12:58:38;;;;;;;;;;;5.00;69.30;;;;;;4943804;29;19911;-80
2023/01/17 13:01:12;;;;;;;;;;;5.10;69.80;;;;;;4971317;29;19926;-80
2023/01/17 13:03:47;;;;;;;;;;;5.10;68.70;;;;;;4964008;28;19903;-80
2023/01/17 13:06:33;;;;;;;;;;;5.20;69.00;;;;;;4988123;28;19992;-81
2023/01/17 13:09:00;;;;;;;;;;;5.20;69.10;;;;;;4967394;28;20023;-80
2023/01/17 13:11:35;;;;;;;;;;;5.20;67.60;;;;;;4943431;29;20237;-82
2023/01/17 13:14:01;;;;;;;;;;;5.20;67.60;;;;;;4942846;29;19927;-81
2023/01/17 13:16:38;;;;;;;;;;;5.10;67.50;;;;;;4943486;29;19950;-81
2023/01/17 13:19:14;;;;;;;;;;;5.00;68.30;;;;;;4957161;29;19914;-81
2023/01/17 13:21:40;;;;;;;;;;;4.90;69.80;;;;;;4972881;28;19950;-80
2023/01/17 13:24:05;;;;;;;;;;;4.90;68.90;;;;;;4996396;28;19937;-81
2023/01/17 13:26:31;;;;;;;;;;;4.80;69.70;;;;;;4988951;28;19903;-80
2023/01/17 13:29:12;;;;;;;;;;;4.80;70.10;;;;;;4978457;28;19946;-80
2023/01/17 13:31:43;;;;;;;;;;;4.80;70.40;;;;;;4988373;28;19918;-80
2023/01/17 13:34:12;;;;;;;;;;;4.90;70.30;;;;;;4959624;29;19918;-80
2023/01/17 13:36:42;;;;;;;;;;;4.90;69.30;;;;;;4967806;28;19915;-80
2023/01/17 13:39:08;;;;;;;;;;;4.90;69.90;;;;;;4982058;28;19901;-81
2023/01/17 13:44:26;;;;;;;;;;;4.90;70.30;;;;;;5234713;23;19933;-77
2023/01/17 13:46:52;;;;;;;;;;;5.00;70.80;;;;;;5009572;28;20004;-78
2023/01/17 13:49:32;;;;;;;;;;;5.00;70.20;;;;;;4996716;28;19940;-77
2023/01/17 13:52:01;;;;;;;;;;;5.00;69.70;;;;;;4995061;28;20341;-78
2023/01/17 13:54:32;;;;;;;;;;;5.10;70.20;;;;;;4999188;28;19922;-77
2023/01/17 13:57:17;;;;;;;;;;;5.10;69.80;;;;;;5001674;28;19981;-78
2023/01/17 13:59:42;;;;;;;;;;;5.20;69.80;;;;;;5001224;28;20389;-77
2023/01/17 14:02:26;;;;;;;;;;;5.20;69.90;;;;;;5002875;28;20029;-78
2023/01/17 14:05:11;;;;;;;;;;;5.30;69.40;;;;;;4997558;28;19914;-78
2023/01/17 14:07:42;;;;;;;;;;;5.20;70.40;;;;;;4997377;28;19925;-77
2023/01/17 14:10:19;;;;;;;;;;;5.20;69.80;;;;;;5000372;28;19914;-76
2023/01/17 14:12:45;;;;;;;;;;;5.10;70.40;;;;;;5012629;28;19914;-76
2023/01/17 14:15:37;;;;;;;;;;;4.90;70.70;;;;;;4997192;28;20440;-77
2023/01/17 14:18:04;;;;;;;;;;;4.70;71.40;;;;;;4995971;28;20322;-77
2023/01/17 14:20:36;;;;;;;;;;;4.70;72.00;;;;;;4996301;28;19921;-77
2023/01/17 14:23:04;;;;;;;;;;;4.60;72.60;;;;;;4997992;28;19914;-78
2023/01/17 14:25:36;;;;;;;;;;;4.60;73.10;;;;;;4996183;28;20382;-78
2023/01/17 14:28:04;;;;;;;;;;;4.50;73.30;;;;;;5002472;28;19916;-78
2023/01/17 14:30:30;;;;;;;;;;;4.40;74.00;;;;;;5000129;28;19921;-78
2023/01/17 14:33:03;;;;;;;;;;;4.30;74.10;;;;;;5003338;28;19918;-77
2023/01/17 14:35:30;;;;;;;;;;;4.30;74.80;;;;;;5002661;28;20334;-78
2023/01/17 14:38:04;;;;;;;;;;;4.20;74.40;;;;;;5005875;28;20510;-77
2023/01/17 14:40:34;;;;;;;;;;;4.20;74.40;;;;;;5007037;28;20001;-78
2023/01/17 14:43:06;;;;;;;;;;;4.10;74.40;;;;;;5012391;28;19917;-78
2023/01/17 14:45:33;;;;;;;;;;;4.00;74.50;;;;;;5027116;28;19909;-78
2023/01/17 14:48:00;;;;;;;;;;;3.90;74.80;;;;;;5017713;28;19945;-78
2023/01/17 14:50:28;;;;;;;;;;;3.80;75.60;;;;;;5017900;28;19913;-77
2023/01/17 14:53:12;;;;;;;;;;;3.80;76.00;;;;;;5009797;28;19910;-78
2023/01/17 14:55:47;;;;;;;;;;;3.70;76.60;;;;;;5039347;28;19921;-78
2023/01/17 14:58:16;;;;;;;;;;;3.60;77.30;;;;;;5020100;28;20385;-77
2023/01/17 15:00:42;;;;;;;;;;;3.60;78.50;;;;;;5021224;28;19921;-77
2023/01/17 15:03:09;;;;;;;;;;;3.50;78.60;;;;;;5019127;28;19929;-77
2023/01/17 15:05:38;;;;;;;;;;;3.60;79.10;;;;;;5017552;28;19960;-77
2023/01/17 15:08:04;;;;;;;;;;;3.50;79.70;;;;;;5008631;28;19913;-78
2023/01/17 15:10:31;;;;;;;;;;;3.40;80.40;;;;;;5025198;28;19920;-78
2023/01/17 15:13:04;;;;;;;;;;;3.40;80.90;;;;;;5006756;28;19928;-77
2023/01/17 15:15:36;;;;;;;;;;;3.40;81.30;;;;;;5018824;28;19953;-77
2023/01/17 15:18:08;;;;;;;;;;;3.30;81.90;;;;;;5015918;28;20008;-77
2023/01/17 15:20:34;;;;;;;;;;;3.30;82.20;;;;;;5016371;28;19913;-77
2023/01/17 15:23:00;;;;;;;;;;;3.30;82.70;;;;;;5016665;28;20008;-76
2023/01/17 15:25:26;;;;;;;;;;;3.30;82.80;;;;;;5004591;28;20370;-78
2023/01/17 15:27:52;;;;;;;;;;;3.30;83.00;;;;;;5024396;28;19963;-78
2023/01/17 15:30:17;;;;;;;;;;;3.30;83.30;;;;;;5023866;28;19909;-78
2023/01/17 15:32:46;;;;;;;;;;;3.20;83.50;;;;;;5021103;28;19921;-78
2023/01/17 15:35:16;;;;;;;;;;;3.20;83.90;;;;;;5000229;28;19914;-77
2023/01/17 15:37:41;;;;;;;;;;;3.20;84.10;;;;;;5021188;28;19918;-77
2023/01/17 15:40:10;;;;;;;;;;;3.10;84.60;;;;;;5019479;28;20273;-79
2023/01/17 15:42:37;;;;;;;;;;;3.10;84.80;;;;;;5020137;28;19984;-78
2023/01/17 15:45:05;;;;;;;;;;;3.10;85.20;;;;;;5024257;28;19963;-78
2023/01/17 15:47:32;;;;;;;;;;;3.10;85.60;;;;;;5033005;28;19920;-77
2023/01/17 15:49:58;;;;;;;;;;;3.00;85.70;;;;;;5035084;28;20201;-77
2023/01/17 15:52:24;;;;;;;;;;;3.00;86.10;;;;;;5032897;28;19996;-78
2023/01/17 15:55:11;;;;;;;;;;;3.00;86.50;;;;;;5034220;28;19905;-78
2023/01/17 15:57:37;;;;;;;;;;;2.90;86.70;;;;;;5030908;28;19924;-79
2023/01/17 16:00:11;;;;;;;;;;;2.90;87.20;;;;;;5026868;28;19980;-77
2023/01/17 16:02:37;;;;;;;;;;;2.90;87.40;;;;;;5008715;28;19913;-77
2023/01/17 16:05:21;;;;;;;;;;;2.90;87.80;;;;;;5020663;28;19921;-78
2023/01/17 16:07:47;;;;;;;;;;;2.80;87.90;;;;;;5038013;28;20023;-79
2023/01/17 16:10:17;;;;;;;;;;;2.80;88.20;;;;;;5024146;28;19921;-78
2023/01/17 16:12:43;;;;;;;;;;;2.80;88.60;;;;;;5007803;28;19930;-77
2023/01/17 16:15:09;;;;;;;;;;;2.70;88.80;;;;;;5000600;28;19913;-77
2023/01/17 16:17:35;;;;;;;;;;;2.70;89.10;;;;;;5017367;28;19986;-78
2023/01/17 16:20:00;;;;;;;;;;;2.80;89.20;;;;;;5005073;28;19953;-78
2023/01/17 16:22:26;;;;;;;;;;;2.80;89.20;;;;;;5024716;28;19924;-78
2023/01/17 16:24:54;;;;;;;;;;;2.80;89.50;;;;;;5024359;28;19913;-78
2023/01/17 16:27:20;;;;;;;;;;;2.70;89.60;;;;;;5038971;28;19976;-78
2023/01/17 16:29:45;;;;;;;;;;;2.70;89.90;;;;;;5019283;28;19961;-78
2023/01/17 16:32:11;;;;;;;;;;;2.80;89.70;;;;;;5017255;28;19985;-77
2023/01/17 16:34:36;;;;;;;;;;;2.80;89.80;;;;;;5021704;28;19926;-79
2023/01/17 16:37:05;;;;;;;;;;;2.80;90.10;;;;;;5004910;28;19977;-78
2023/01/17 16:39:30;;;;;;;;;;;2.80;90.20;;;;;;5004122;28;19936;-78
2023/01/17 16:42:02;;;;;;;;;;;2.80;90.20;;;;;;5023217;28;19913;-79
2023/01/17 16:44:28;;;;;;;;;;;2.70;90.40;;;;;;5021124;28;19921;-78
2023/01/17 16:46:57;;;;;;;;;;;2.70;90.60;;;;;;5003247;28;19932;-77
2023/01/17 16:49:23;;;;;;;;;;;2.80;90.80;;;;;;5018157;28;19920;-79
2023/01/17 16:51:48;;;;;;;;;;;2.70;90.90;;;;;;5018429;28;20000;-77
2023/01/17 16:54:14;;;;;;;;;;;2.70;91.00;;;;;;5021897;28;19918;-79
2023/01/17 16:56:39;;;;;;;;;;;2.70;91.00;;;;;;5022363;28;20301;-78
2023/01/17 16:59:05;;;;;;;;;;;2.70;91.10;;;;;;5020078;28;19917;-77
2023/01/17 17:01:30;;;;;;;;;;;2.70;91.10;;;;;;5022267;28;19913;-79
2023/01/17 17:03:56;;;;;;;;;;;2.70;91.30;;;;;;5022908;28;19929;-79
2023/01/17 17:06:21;;;;;;;;;;;2.80;91.20;;;;;;5018277;28;19953;-79
2023/01/17 17:08:47;;;;;;;;;;;2.80;91.30;;;;;;5005922;28;20429;-78
2023/01/17 17:11:15;;;;;;;;;;;2.70;91.20;;;;;;5023597;28;19913;-79
2023/01/17 17:13:41;;;;;;;;;;;2.80;91.40;;;;;;4998894;28;19991;-79
2023/01/17 17:16:25;;;;;;;;;;;2.70;91.30;;;;;;5015888;28;20048;-79
2023/01/17 17:19:01;;;;;;;;;;;2.70;91.40;;;;;;5016793;28;19925;-78
2023/01/17 17:21:27;;;;;;;;;;;2.70;91.40;;;;;;5015899;28;19966;-77
2023/01/17 17:23:57;;;;;;;;;;;2.70;91.60;;;;;;5031673;28;19916;-78
2023/01/17 17:26:27;;;;;;;;;;;2.70;91.60;;;;;;5033852;28;19917;-77
2023/01/17 17:28:53;;;;;;;;;;;2.70;91.60;;;;;;5016676;28;19980;-78
2023/01/17 17:31:19;;;;;;;;;;;2.70;91.60;;;;;;5019615;28;19914;-79
2023/01/17 17:33:45;;;;;;;;;;;2.70;91.50;;;;;;5021430;28;19913;-79
2023/01/17 17:36:10;;;;;;;;;;;2.70;91.50;;;;;;5022433;28;20329;-79
2023/01/17 17:38:37;;;;;;;;;;;2.80;91.70;;;;;;5023173;28;20019;-80
2023/01/17 17:41:08;;;;;;;;;;;2.80;91.70;;;;;;5023824;28;19914;-79
2023/01/17 17:43:34;;;;;;;;;;;2.80;91.70;;;;;;5005268;28;20320;-79
2023/01/17 17:46:00;;;;;;;;;;;2.80;91.60;;;;;;5023389;28;19996;-80
2023/01/17 17:48:25;;;;;;;;;;;2.80;91.60;;;;;;5024049;28;20008;-80
2023/01/17 17:50:55;;;;;;;;;;;2.80;91.60;;;;;;5026172;28;20048;-80
2023/01/17 17:53:20;;;;;;;;;;;2.80;91.80;;;;;;5022598;28;20007;-80
2023/01/17 17:55:46;;;;;;;;;;;2.80;91.80;;;;;;5022416;28;19948;-80
2023/01/17 17:58:11;;;;;;;;;;;2.80;91.90;;;;;;5004304;28;19977;-80
2023/01/17 18:00:37;;;;;;;;;;;2.80;91.70;;;;;;5004979;28;19937;-79
2023/01/17 18:03:02;;;;;;;;;;;2.80;91.70;;;;;;5022096;28;19920;-79
2023/01/17 18:05:28;;;;;;;;;;;2.80;91.70;;;;;;5022908;28;19917;-81
2023/01/17 18:07:54;;;;;;;;;;;2.80;91.80;;;;;;5020180;28;19910;-80
2023/01/17 18:10:19;;;;;;;;;;;2.80;91.70;;;;;;5021594;28;19956;-81
2023/01/17 18:12:45;;;;;;;;;;;2.80;91.70;;;;;;5020934;28;20416;-79
2023/01/17 18:15:10;;;;;;;;;;;2.80;91.80;;;;;;5022863;28;19913;-79
2023/01/17 18:17:36;;;;;;;;;;;2.80;91.80;;;;;;5005595;28;19918;-79
2023/01/17 18:20:02;;;;;;;;;;;2.80;91.70;;;;;;5023529;28;19913;-80
2023/01/17 18:22:27;;;;;;;;;;;2.80;91.90;;;;;;5020357;28;19913;-79
2023/01/17 18:24:53;;;;;;;;;;;2.80;91.80;;;;;;5021477;28;19920;-82
2023/01/17 18:27:18;;;;;;;;;;;2.80;91.90;;;;;;5022299;28;19968;-81
2023/01/17 18:29:44;;;;;;;;;;;2.70;91.90;;;;;;5021735;28;19981;-80
2023/01/17 18:32:11;;;;;;;;;;;2.70;92.00;;;;;;5004536;28;19920;-77
2023/01/17 18:34:40;;;;;;;;;;;2.70;92.20;;;;;;5021369;28;20304;-81
2023/01/17 18:37:05;;;;;;;;;;;2.70;92.20;;;;;;5005644;28;19904;-80
2023/01/17 18:39:31;;;;;;;;;;;2.70;92.20;;;;;;5023218;28;19910;-80
2023/01/17 18:41:56;;;;;;;;;;;2.70;92.30;;;;;;5004726;28;19914;-81
2023/01/17 18:44:22;;;;;;;;;;;2.60;92.30;;;;;;5021541;28;19922;-78
2023/01/17 18:46:48;;;;;;;;;;;2.60;92.40;;;;;;5024502;28;20331;-79
2023/01/17 18:49:17;;;;;;;;;;;2.60;92.30;;;;;;5025431;28;19910;-81
2023/01/17 18:51:47;;;;;;;;;;;2.60;92.30;;;;;;5033676;28;19921;-79
2023/01/17 18:54:13;;;;;;;;;;;2.60;92.40;;;;;;5018792;28;19905;-78
2023/01/17 18:56:44;;;;;;;;;;;2.60;92.50;;;;;;5038790;28;19914;-79
2023/01/17 18:59:11;;;;;;;;;;;2.60;92.40;;;;;;5019546;28;19910;-78
2023/01/17 19:01:45;;;;;;;;;;;2.60;92.50;;;;;;5016859;28;20306;-78
2023/01/17 19:04:11;;;;;;;;;;;2.60;92.60;;;;;;5028377;28;19971;-77
2023/01/17 19:06:39;;;;;;;;;;;2.60;92.70;;;;;;5046087;28;19920;-78
2023/01/17 19:09:06;;;;;;;;;;;2.60;92.70;;;;;;5049889;28;19975;-80
2023/01/17 19:11:32;;;;;;;;;;;2.70;92.80;;;;;;5028309;28;19920;-78
2023/01/17 19:13:57;;;;;;;;;;;2.70;92.80;;;;;;5039615;28;19909;-78
2023/01/17 19:16:26;;;;;;;;;;;2.80;92.70;;;;;;5017161;28;19975;-79
2023/01/17 19:18:52;;;;;;;;;;;2.90;92.60;;;;;;5049261;28;19941;-79